aviador You're here:

RJTY Decoded Metar

YOKOTA in JAPAN
Report Time2017-11-24 02:56:00
UTC Time2017-11-24 03:49:47
Flight Rules vfr VFR
Wind110° at 04 kt
W.Decomp.*RWY 18: 1.8 kt HW 3.6 kt LCW
W.Rank110° ranks 32
Current wind is below 110° avg. (4.1)
Visibility9999 m
Phenomena:N/A
Clouds:N/A
Expected CloudBase > 5,200 ft AGL from Temp-Dew spread
CeilingNone
Temp13°C (ISA -1)
Dew Point00°C (41% RH)
AAT9.6°C
QNH1014 hPa
Density Alt381 ft
Elevation456 ft
Report Wrong Elevation
Raw Report
RJTY 240256Z AUTO 11004KT 10SM CLR 13/00 A2994 RMK AO2 SLP145
T01270001 58012 FZRANO $=

Extra information for RJTY:More info

Metar Taf Metar & Taf Last 4 Metars F.Rules Stats Wind Profile Meteogram Temp Stats Airport Information Weather charts Add Link Nearby VenuesMetar ALERT Operation Metar Decoded Social comments